sensor_id;sensor_type;location;lat;lon;timestamp;pressure;altitude;pressure_sealevel;temperature;humidity
12664;BME280;6396;58.490;15.528;2022-09-01T00:01:40;101869.44;;;13.91;100.00
12664;BME280;6396;58.490;15.528;2022-09-01T00:04:09;101863.31;;;13.89;100.00
12664;BME280;6396;58.490;15.528;2022-09-01T00:06:37;101758.44;;;13.22;100.00
12664;BME280;6396;58.490;15.528;2022-09-01T00:09:07;101604.38;;;12.42;100.00
12664;BME280;6396;58.490;15.528;2022-09-01T00:11:34;101683.13;;;12.82;100.00
12664;BME280;6396;58.490;15.528;2022-09-01T00:14:02;101548.72;;;11.94;100.00
12664;BME280;6396;58.490;15.528;2022-09-01T00:16:32;101731.56;;;12.90;100.00
12664;BME280;6396;58.490;15.528;2022-09-01T00:18:59;101844.88;;;13.80;100.00
12664;BME280;6396;58.490;15.528;2022-09-01T00:21:29;101838.63;;;13.82;100.00
12664;BME280;6396;58.490;15.528;2022-09-01T00:23:56;101842.19;;;13.81;100.00
12664;BME280;6396;58.490;15.528;2022-09-01T00:26:23;101819.28;;;13.76;100.00
12664;BME280;6396;58.490;15.528;2022-09-01T00:28:49;101827.94;;;13.87;100.00
12664;BME280;6396;58.490;15.528;2022-09-01T00:31:17;101629.34;;;12.76;100.00
12664;BME280;6396;58.490;15.528;2022-09-01T00:33:47;101829.59;;;13.91;100.00
12664;BME280;6396;58.490;15.528;2022-09-01T00:36:14;101468.56;;;11.86;100.00
12664;BME280;6396;58.490;15.528;2022-09-01T00:38:41;101825.31;;;13.85;100.00
12664;BME280;6396;58.490;15.528;2022-09-01T00:41:08;101667.88;;;12.93;100.00
12664;BME280;6396;58.490;15.528;2022-09-01T00:43:38;101603.22;;;12.55;100.00
12664;BME280;6396;58.490;15.528;2022-09-01T00:46:08;101824.47;;;13.83;100.00
12664;BME280;6396;58.490;15.528;2022-09-01T00:48:35;101742.22;;;13.37;100.00
12664;BME280;6396;58.490;15.528;2022-09-01T00:51:05;101822.66;;;13.85;100.00
12664;BME280;6396;58.490;15.528;2022-09-01T00:53:33;101767.75;;;13.43;100.00
12664;BME280;6396;58.490;15.528;2022-09-01T00:56:01;101703.91;;;13.06;100.00
12664;BME280;6396;58.490;15.528;2022-09-01T00:58:29;101707.22;;;13.19;100.00
12664;BME280;6396;58.490;15.528;2022-09-01T01:00:56;101844.84;;;13.81;100.00
12664;BME280;6396;58.490;15.528;2022-09-01T01:03:23;101551.88;;;12.14;100.00
12664;BME280;6396;58.490;15.528;2022-09-01T01:05:53;101856.41;;;13.80;100.00
12664;BME280;6396;58.490;15.528;2022-09-01T01:08:26;101820.03;;;13.82;100.00
12664;BME280;6396;58.490;15.528;2022-09-01T01:10:58;101685.41;;;13.03;100.00
12664;BME280;6396;58.490;15.528;2022-09-01T01:13:25;101662.94;;;12.75;100.00
12664;BME280;6396;58.490;15.528;2022-09-01T01:15:54;101650.69;;;12.67;100.00
12664;BME280;6396;58.490;15.528;2022-09-01T01:18:20;101728.56;;;13.11;100.00
12664;BME280;6396;58.490;15.528;2022-09-01T01:20:54;101820.09;;;13.79;100.00
12664;BME280;6396;58.490;15.528;2022-09-01T01:23:44;101818.34;;;13.80;100.00
12664;BME280;6396;58.490;15.528;2022-09-01T01:26:14;101784.69;;;13.36;100.00
12664;BME280;6396;58.490;15.528;2022-09-01T01:28:41;101697.28;;;12.81;100.00
12664;BME280;6396;58.490;15.528;2022-09-01T01:31:10;101822.69;;;13.84;100.00
12664;BME280;6396;58.490;15.528;2022-09-01T01:33:40;101818.22;;;13.84;100.00
12664;BME280;6396;58.490;15.528;2022-09-01T01:36:10;101433.69;;;11.65;100.00
12664;BME280;6396;58.490;15.528;2022-09-01T01:38:38;101820.03;;;13.84;100.00
12664;BME280;6396;58.490;15.528;2022-09-01T01:41:07;101824.53;;;13.80;100.00
12664;BME280;6396;58.490;15.528;2022-09-01T01:43:36;101767.94;;;13.34;100.00
12664;BME280;6396;58.490;15.528;2022-09-01T01:46:05;101818.31;;;13.81;100.00
12664;BME280;6396;58.490;15.528;2022-09-01T01:48:35;101734.66;;;13.16;100.00
12664;BME280;6396;58.490;15.528;2022-09-01T01:51:05;101677.00;;;12.79;100.00
12664;BME280;6396;58.490;15.528;2022-09-01T01:53:32;101814.88;;;13.76;100.00
12664;BME280;6396;58.490;15.528;2022-09-01T01:55:59;101424.56;;;11.27;100.00
12664;BME280;6396;58.490;15.528;2022-09-01T01:58:27;101635.59;;;12.73;100.00
12664;BME280;6396;58.490;15.528;2022-09-01T02:00:56;101691.88;;;12.87;100.00
12664;BME280;6396;58.490;15.528;2022-09-01T02:03:25;101813.09;;;13.77;100.00
12664;BME280;6396;58.490;15.528;2022-09-01T02:05:53;101845.84;;;13.76;100.00
12664;BME280;6396;58.490;15.528;2022-09-01T02:08:22;101825.53;;;13.75;100.00
12664;BME280;6396;58.490;15.528;2022-09-01T02:10:52;101672.69;;;12.73;100.00
12664;BME280;6396;58.490;15.528;2022-09-01T02:13:20;101433.16;;;11.42;100.00
12664;BME280;6396;58.490;15.528;2022-09-01T02:15:59;101768.59;;;13.43;100.00
12664;BME280;6396;58.490;15.528;2022-09-01T02:18:28;101519.50;;;11.99;100.00
12664;BME280;6396;58.490;15.528;2022-09-01T02:20:58;101676.19;;;12.75;100.00
12664;BME280;6396;58.490;15.528;2022-09-01T02:23:26;101820.25;;;13.73;100.00
12664;BME280;6396;58.490;15.528;2022-09-01T02:25:56;101649.75;;;12.71;100.00
12664;BME280;6396;58.490;15.528;2022-09-01T02:28:25;101827.28;;;13.74;100.00
12664;BME280;6396;58.490;15.528;2022-09-01T02:30:53;101848.53;;;13.74;100.00
12664;BME280;6396;58.490;15.528;2022-09-01T02:33:23;101668.91;;;12.86;100.00
12664;BME280;6396;58.490;15.528;2022-09-01T02:35:54;101768.75;;;13.37;100.00
12664;BME280;6396;58.490;15.528;2022-09-01T02:38:21;101824.75;;;13.70;100.00
12664;BME280;6396;58.490;15.528;2022-09-01T02:40:51;101749.00;;;13.06;100.00
12664;BME280;6396;58.490;15.528;2022-09-01T02:43:18;101668.19;;;12.78;100.00
12664;BME280;6396;58.490;15.528;2022-09-01T02:45:46;101772.56;;;13.21;100.00
12664;BME280;6396;58.490;15.528;2022-09-01T02:48:16;101648.34;;;12.52;100.00
12664;BME280;6396;58.490;15.528;2022-09-01T02:50:44;101689.22;;;12.87;100.00
12664;BME280;6396;58.490;15.528;2022-09-01T02:53:11;101593.72;;;12.45;100.00
12664;BME280;6396;58.490;15.528;2022-09-01T02:55:40;101818.44;;;13.74;100.00
12664;BME280;6396;58.490;15.528;2022-09-01T02:58:08;101708.53;;;12.94;100.00
12664;BME280;6396;58.490;15.528;2022-09-01T03:00:39;101821.16;;;13.71;100.00
12664;BME280;6396;58.490;15.528;2022-09-01T03:03:06;101821.19;;;13.69;100.00
12664;BME280;6396;58.490;15.528;2022-09-01T03:05:34;101822.97;;;13.69;100.00
12664;BME280;6396;58.490;15.528;2022-09-01T03:08:06;101385.88;;;11.22;100.00
12664;BME280;6396;58.490;15.528;2022-09-01T03:10:37;101815.00;;;13.69;100.00
12664;BME280;6396;58.490;15.528;2022-09-01T03:13:10;101837.16;;;13.68;100.00
12664;BME280;6396;58.490;15.528;2022-09-01T03:15:38;101663.88;;;12.71;100.00
12664;BME280;6396;58.490;15.528;2022-09-01T03:18:06;101833.66;;;13.66;100.00
12664;BME280;6396;58.490;15.528;2022-09-01T03:20:35;101830.16;;;13.64;100.00
12664;BME280;6396;58.490;15.528;2022-09-01T03:23:07;101498.84;;;11.69;100.00
12664;BME280;6396;58.490;15.528;2022-09-01T03:25:35;101843.53;;;13.59;100.00
12664;BME280;6396;58.490;15.528;2022-09-01T03:28:02;101641.06;;;12.11;100.00
12664;BME280;6396;58.490;15.528;2022-09-01T03:30:32;101737.19;;;12.72;100.00
12664;BME280;6396;58.490;15.528;2022-09-01T03:33:00;101620.53;;;12.25;100.00
12664;BME280;6396;58.490;15.528;2022-09-01T03:35:28;101780.63;;;13.17;100.00
12664;BME280;6396;58.490;15.528;2022-09-01T03:37:56;101640.09;;;12.16;100.00
12664;BME280;6396;58.490;15.528;2022-09-01T03:40:26;101831.28;;;13.51;100.00
12664;BME280;6396;58.490;15.528;2022-09-01T03:42:56;101830.38;;;13.52;100.00
12664;BME280;6396;58.490;15.528;2022-09-01T03:45:23;101830.50;;;13.45;100.00
12664;BME280;6396;58.490;15.528;2022-09-01T03:47:50;101694.00;;;12.67;100.00
12664;BME280;6396;58.490;15.528;2022-09-01T03:50:21;101833.09;;;13.49;100.00
12664;BME280;6396;58.490;15.528;2022-09-01T03:52:50;101798.13;;;13.27;100.00
12664;BME280;6396;58.490;15.528;2022-09-01T03:55:20;101836.63;;;13.49;100.00
12664;BME280;6396;58.490;15.528;2022-09-01T03:57:49;101688.84;;;12.58;100.00
12664;BME280;6396;58.490;15.528;2022-09-01T04:00:16;101832.28;;;13.43;100.00
12664;BME280;6396;58.490;15.528;2022-09-01T04:02:50;101702.81;;;12.68;100.00
12664;BME280;6396;58.490;15.528;2022-09-01T04:05:18;101708.59;;;12.39;100.00
12664;BME280;6396;58.490;15.528;2022-09-01T04:07:54;101781.69;;;13.05;100.00
12664;BME280;6396;58.490;15.528;2022-09-01T04:10:21;101844.81;;;13.37;100.00
12664;BME280;6396;58.490;15.528;2022-09-01T04:12:49;101486.22;;;11.30;100.00
12664;BME280;6396;58.490;15.528;2022-09-01T04:15:17;101449.84;;;10.87;100.00
12664;BME280;6396;58.490;15.528;2022-09-01T04:17:44;101837.06;;;13.25;100.00
12664;BME280;6396;58.490;15.528;2022-09-01T04:20:28;101588.63;;;11.82;100.00
12664;BME280;6396;58.490;15.528;2022-09-01T04:23:04;101855.66;;;13.23;100.00
12664;BME280;6396;58.490;15.528;2022-09-01T04:25:35;101736.78;;;12.43;100.00
12664;BME280;6396;58.490;15.528;2022-09-01T04:28:05;101865.44;;;13.20;100.00
12664;BME280;6396;58.490;15.528;2022-09-01T04:30:38;101581.78;;;11.68;100.00
12664;BME280;6396;58.490;15.528;2022-09-01T04:33:07;101434.88;;;10.88;100.00
12664;BME280;6396;58.490;15.528;2022-09-01T04:35:36;101465.47;;;11.05;100.00
12664;BME280;6396;58.490;15.528;2022-09-01T04:38:03;101734.88;;;12.51;100.00
12664;BME280;6396;58.490;15.528;2022-09-01T04:40:36;101872.47;;;13.24;100.00
12664;BME280;6396;58.490;15.528;2022-09-01T04:43:04;101804.78;;;12.99;100.00
12664;BME280;6396;58.490;15.528;2022-09-01T04:45:33;101841.47;;;13.24;100.00
12664;BME280;6396;58.490;15.528;2022-09-01T04:48:01;101839.75;;;13.23;100.00
12664;BME280;6396;58.490;15.528;2022-09-01T04:50:28;101839.66;;;13.29;100.00
12664;BME280;6396;58.490;15.528;2022-09-01T04:52:57;101675.16;;;12.32;100.00
12664;BME280;6396;58.490;15.528;2022-09-01T04:55:25;101842.63;;;13.10;100.00
12664;BME280;6396;58.490;15.528;2022-09-01T04:57:56;101867.88;;;13.32;100.00
12664;BME280;6396;58.490;15.528;2022-09-01T05:00:26;101843.84;;;13.41;100.00
12664;BME280;6396;58.490;15.528;2022-09-01T05:02:57;101847.34;;;13.43;100.00
12664;BME280;6396;58.490;15.528;2022-09-01T05:05:34;101850.78;;;13.50;100.00
12664;BME280;6396;58.490;15.528;2022-09-01T05:08:04;101678.56;;;12.40;100.00
12664;BME280;6396;58.490;15.528;2022-09-01T05:10:31;101706.59;;;12.53;100.00
12664;BME280;6396;58.490;15.528;2022-09-01T05:13:00;101851.56;;;13.55;100.00
12664;BME280;6396;58.490;15.528;2022-09-01T05:15:36;101764.09;;;13.01;100.00
12664;BME280;6396;58.490;15.528;2022-09-01T05:18:03;101673.13;;;12.48;100.00
12664;BME280;6396;58.490;15.528;2022-09-01T05:20:36;101732.88;;;12.65;100.00
12664;BME280;6396;58.490;15.528;2022-09-01T05:23:07;101862.78;;;13.69;100.00
12664;BME280;6396;58.490;15.528;2022-09-01T05:25:38;101752.50;;;13.08;100.00
12664;BME280;6396;58.490;15.528;2022-09-01T05:28:07;101552.22;;;11.95;100.00
12664;BME280;6396;58.490;15.528;2022-09-01T05:30:39;101302.28;;;10.63;100.00
12664;BME280;6396;58.490;15.528;2022-09-01T05:33:07;101862.53;;;13.82;100.00
12664;BME280;6396;58.490;15.528;2022-09-01T05:35:36;101857.09;;;13.88;100.00
12664;BME280;6396;58.490;15.528;2022-09-01T05:38:05;101579.00;;;12.28;100.00
12664;BME280;6396;58.490;15.528;2022-09-01T05:40:35;101741.03;;;13.06;100.00
12664;BME280;6396;58.490;15.528;2022-09-01T05:43:06;101854.22;;;13.99;100.00
12664;BME280;6396;58.490;15.528;2022-09-01T05:45:35;101751.03;;;13.39;100.00
12664;BME280;6396;58.490;15.528;2022-09-01T05:48:04;101855.06;;;14.02;100.00
12664;BME280;6396;58.490;15.528;2022-09-01T05:50:34;101521.25;;;12.01;100.00
12664;BME280;6396;58.490;15.528;2022-09-01T05:53:04;101714.28;;;13.18;100.00
12664;BME280;6396;58.490;15.528;2022-09-01T05:55:40;101799.59;;;13.86;100.00
12664;BME280;6396;58.490;15.528;2022-09-01T05:58:08;101857.25;;;14.23;100.00
12664;BME280;6396;58.490;15.528;2022-09-01T06:00:38;101864.34;;;14.23;100.00
12664;BME280;6396;58.490;15.528;2022-09-01T06:03:07;101693.69;;;13.32;100.00
12664;BME280;6396;58.490;15.528;2022-09-01T06:05:35;101857.34;;;14.19;100.00
12664;BME280;6396;58.490;15.528;2022-09-01T06:08:02;101778.53;;;13.78;100.00
12664;BME280;6396;58.490;15.528;2022-09-01T06:10:30;101855.41;;;14.28;100.00
12664;BME280;6396;58.490;15.528;2022-09-01T06:12:57;101705.03;;;13.39;100.00
12664;BME280;6396;58.490;15.528;2022-09-01T06:15:27;101852.72;;;14.30;100.00
12664;BME280;6396;58.490;15.528;2022-09-01T06:17:55;101573.66;;;12.30;100.00
12664;BME280;6396;58.490;15.528;2022-09-01T06:20:23;101783.75;;;13.83;100.00
12664;BME280;6396;58.490;15.528;2022-09-01T06:22:50;101848.09;;;14.39;100.00
12664;BME280;6396;58.490;15.528;2022-09-01T06:25:18;101856.09;;;14.38;100.00
12664;BME280;6396;58.490;15.528;2022-09-01T06:27:46;101641.94;;;13.10;100.00
12664;BME280;6396;58.490;15.528;2022-09-01T06:30:14;101845.25;;;14.47;100.00
12664;BME280;6396;58.490;15.528;2022-09-01T06:32:48;101494.59;;;12.55;100.00
12664;BME280;6396;58.490;15.528;2022-09-01T06:35:16;101511.81;;;12.78;100.00
12664;BME280;6396;58.490;15.528;2022-09-01T06:37:45;101343.03;;;11.54;100.00
12664;BME280;6396;58.490;15.528;2022-09-01T06:40:14;101344.75;;;12.03;100.00
12664;BME280;6396;58.490;15.528;2022-09-01T06:42:43;101430.59;;;13.14;100.00
12664;BME280;6396;58.490;15.528;2022-09-01T06:45:12;101849.47;;;15.95;100.00
12664;BME280;6396;58.490;15.528;2022-09-01T06:47:40;101726.91;;;15.66;100.00
12664;BME280;6396;58.490;15.528;2022-09-01T06:50:10;101296.44;;;14.02;100.00
12664;BME280;6396;58.490;15.528;2022-09-01T06:52:40;101583.25;;;16.90;100.00
12664;BME280;6396;58.490;15.528;2022-09-01T06:55:09;101754.75;;;19.23;100.00
12664;BME280;6396;58.490;15.528;2022-09-01T06:57:37;101603.22;;;19.18;100.00
12664;BME280;6396;58.490;15.528;2022-09-01T07:00:06;101615.72;;;20.12;100.00
12664;BME280;6396;58.490;15.528;2022-09-01T07:02:42;101835.50;;;22.26;100.00
12664;BME280;6396;58.490;15.528;2022-09-01T07:05:10;101835.06;;;22.66;100.00
12664;BME280;6396;58.490;15.528;2022-09-01T07:07:46;101841.03;;;23.33;98.73
12664;BME280;6396;58.490;15.528;2022-09-01T07:10:17;101608.22;;;22.15;87.35
12664;BME280;6396;58.490;15.528;2022-09-01T07:12:47;101762.41;;;23.55;91.03
12664;BME280;6396;58.490;15.528;2022-09-01T07:15:14;101694.84;;;23.42;88.31
12664;BME280;6396;58.490;15.528;2022-09-01T07:17:42;101692.22;;;23.97;81.13
12664;BME280;6396;58.490;15.528;2022-09-01T07:20:09;101832.81;;;24.91;74.80
12664;BME280;6396;58.490;15.528;2022-09-01T07:22:37;101414.22;;;22.76;73.11
12664;BME280;6396;58.490;15.528;2022-09-01T07:25:04;101835.88;;;24.99;71.83
12664;BME280;6396;58.490;15.528;2022-09-01T07:27:33;101712.28;;;24.48;66.34
12664;BME280;6396;58.490;15.528;2022-09-01T07:30:00;101744.22;;;24.82;62.50
12664;BME280;6396;58.490;15.528;2022-09-01T07:32:27;101724.19;;;25.11;63.23
12664;BME280;6396;58.490;15.528;2022-09-01T07:34:56;101836.97;;;25.87;62.29
12664;BME280;6396;58.490;15.528;2022-09-01T07:37:23;101701.38;;;25.15;61.07
12664;BME280;6396;58.490;15.528;2022-09-01T07:39:52;101486.59;;;23.78;59.64
12664;BME280;6396;58.490;15.528;2022-09-01T07:42:19;101836.69;;;26.17;59.24
12664;BME280;6396;58.490;15.528;2022-09-01T07:44:48;101584.44;;;24.86;53.77
12664;BME280;6396;58.490;15.528;2022-09-01T07:47:16;101836.28;;;26.59;55.50
12664;BME280;6396;58.490;15.528;2022-09-01T07:49:43;101699.22;;;25.83;54.61
12664;BME280;6396;58.490;15.528;2022-09-01T07:52:09;101852.44;;;26.97;53.15
12664;BME280;6396;58.490;15.528;2022-09-01T07:54:36;101839.31;;;26.91;52.96
12664;BME280;6396;58.490;15.528;2022-09-01T07:57:04;101835.53;;;26.93;53.28
12664;BME280;6396;58.490;15.528;2022-09-01T07:59:30;101834.16;;;27.11;52.08
12664;BME280;6396;58.490;15.528;2022-09-01T08:01:59;101841.78;;;27.30;50.34
12664;BME280;6396;58.490;15.528;2022-09-01T08:04:26;101434.31;;;24.70;51.25
12664;BME280;6396;58.490;15.528;2022-09-01T08:06:53;101841.66;;;27.08;51.16
12664;BME280;6396;58.490;15.528;2022-09-01T08:09:20;101845.38;;;27.30;50.15
12664;BME280;6396;58.490;15.528;2022-09-01T08:11:46;101746.41;;;26.53;48.96
12664;BME280;6396;58.490;15.528;2022-09-01T08:14:14;101852.19;;;27.36;48.90
12664;BME280;6396;58.490;15.528;2022-09-01T08:16:40;101845.13;;;27.33;48.64
12664;BME280;6396;58.490;15.528;2022-09-01T08:19:09;101851.69;;;27.42;47.86
12664;BME280;6396;58.490;15.528;2022-09-01T08:21:35;101776.53;;;26.61;49.17
12664;BME280;6396;58.490;15.528;2022-09-01T08:24:02;101624.47;;;26.05;48.65
12664;BME280;6396;58.490;15.528;2022-09-01T08:26:29;101862.09;;;27.48;47.79
12664;BME280;6396;58.490;15.528;2022-09-01T08:28:56;101867.91;;;27.55;47.64
12664;BME280;6396;58.490;15.528;2022-09-01T08:31:23;101829.00;;;27.19;45.45
12664;BME280;6396;58.490;15.528;2022-09-01T08:33:51;101673.25;;;26.29;45.30
12664;BME280;6396;58.490;15.528;2022-09-01T08:36:20;101847.84;;;27.68;44.85
12664;BME280;6396;58.490;15.528;2022-09-01T08:38:47;101858.19;;;27.63;43.64
12664;BME280;6396;58.490;15.528;2022-09-01T08:41:17;101846.16;;;27.89;44.30
12664;BME280;6396;58.490;15.528;2022-09-01T08:43:53;101795.22;;;27.47;40.53
12664;BME280;6396;58.490;15.528;2022-09-01T08:46:25;101856.81;;;27.92;41.23
12664;BME280;6396;58.490;15.528;2022-09-01T08:48:55;101702.16;;;26.28;42.69
12664;BME280;6396;58.490;15.528;2022-09-01T08:51:31;101844.19;;;27.22;41.81
12664;BME280;6396;58.490;15.528;2022-09-01T08:54:05;101842.44;;;26.74;40.81
12664;BME280;6396;58.490;15.528;2022-09-01T08:59:42;101659.00;;;25.53;44.44
12664;BME280;6396;58.490;15.528;2022-09-01T09:02:23;101837.00;;;26.61;41.37
12664;BME280;6396;58.490;15.528;2022-09-01T09:04:59;101830.66;;;26.50;42.25
12664;BME280;6396;58.490;15.528;2022-09-01T09:07:40;101842.06;;;26.29;41.79
12664;BME280;6396;58.490;15.528;2022-09-01T09:10:16;101756.09;;;26.08;42.09
12664;BME280;6396;58.490;15.528;2022-09-01T09:12:57;101819.09;;;25.97;43.01
12664;BME280;6396;58.490;15.528;2022-09-01T09:15:32;101669.78;;;25.03;43.14
12664;BME280;6396;58.490;15.528;2022-09-01T09:18:11;101711.59;;;25.37;43.70
12664;BME280;6396;58.490;15.528;2022-09-01T09:20:40;101533.56;;;24.41;45.47
12664;BME280;6396;58.490;15.528;2022-09-01T09:23:15;101832.88;;;25.94;43.50
12664;BME280;6396;58.490;15.528;2022-09-01T09:25:47;101753.69;;;25.53;46.16
12664;BME280;6396;58.490;15.528;2022-09-01T09:28:15;101701.34;;;24.63;46.72
12664;BME280;6396;58.490;15.528;2022-09-01T09:30:41;101826.81;;;25.39;47.63
12664;BME280;6396;58.490;15.528;2022-09-01T09:33:08;101447.19;;;23.08;49.06
12664;BME280;6396;58.490;15.528;2022-09-01T09:35:39;101832.25;;;24.86;50.05
12664;BME280;6396;58.490;15.528;2022-09-01T09:38:20;101703.50;;;23.33;47.45
12664;BME280;6396;58.490;15.528;2022-09-01T09:40:59;101701.88;;;23.45;47.54
12664;BME280;6396;58.490;15.528;2022-09-01T09:43:26;101770.41;;;23.70;50.03
12664;BME280;6396;58.490;15.528;2022-09-01T09:46:20;101819.97;;;23.54;52.02
12664;BME280;6396;58.490;15.528;2022-09-01T09:48:48;101680.81;;;23.07;56.90
12664;BME280;6396;58.490;15.528;2022-09-01T09:51:18;101761.91;;;23.62;57.05
12664;BME280;6396;58.490;15.528;2022-09-01T09:53:48;101812.66;;;24.13;51.08
12664;BME280;6396;58.490;15.528;2022-09-01T09:56:17;101805.31;;;24.29;53.94
12664;BME280;6396;58.490;15.528;2022-09-01T09:58:45;101809.16;;;24.40;54.35
12664;BME280;6396;58.490;15.528;2022-09-01T10:01:28;101843.91;;;24.03;48.07
12664;BME280;6396;58.490;15.528;2022-09-01T10:03:56;101421.34;;;21.91;53.36
12664;BME280;6396;58.490;15.528;2022-09-01T10:06:32;101799.34;;;24.24;52.15
12664;BME280;6396;58.490;15.528;2022-09-01T10:09:03;101805.03;;;24.20;52.27
12664;BME280;6396;58.490;15.528;2022-09-01T10:11:35;101806.91;;;23.90;47.58
12664;BME280;6396;58.490;15.528;2022-09-01T10:14:06;101655.13;;;22.72;47.20
12664;BME280;6396;58.490;15.528;2022-09-01T10:16:36;101343.53;;;20.98;51.74
12664;BME280;6396;58.490;15.528;2022-09-01T10:19:05;101758.00;;;23.08;54.81
12664;BME280;6396;58.490;15.528;2022-09-01T10:21:37;101779.22;;;22.99;56.85
12664;BME280;6396;58.490;15.528;2022-09-01T10:24:16;101644.50;;;21.77;54.19
12664;BME280;6396;58.490;15.528;2022-09-01T10:26:47;101519.28;;;20.77;56.43
12664;BME280;6396;58.490;15.528;2022-09-01T10:29:19;101545.47;;;20.39;60.50
12664;BME280;6396;58.490;15.528;2022-09-01T10:31:47;101717.84;;;21.14;60.25
12664;BME280;6396;58.490;15.528;2022-09-01T10:34:17;101605.56;;;20.18;69.07
12664;BME280;6396;58.490;15.528;2022-09-01T10:36:45;101705.47;;;20.59;66.47
12664;BME280;6396;58.490;15.528;2022-09-01T10:39:15;101797.75;;;21.11;65.33
12664;BME280;6396;58.490;15.528;2022-09-01T10:41:44;101695.72;;;20.39;64.73
12664;BME280;6396;58.490;15.528;2022-09-01T10:44:18;101406.97;;;18.78;62.14
12664;BME280;6396;58.490;15.528;2022-09-01T10:46:46;101736.13;;;20.72;59.71
12664;BME280;6396;58.490;15.528;2022-09-01T10:55:17;101793.25;;;20.92;65.21
12664;BME280;6396;58.490;15.528;2022-09-01T10:57:52;101683.22;;;20.02;67.92
12664;BME280;6396;58.490;15.528;2022-09-01T11:00:49;101801.31;;;20.57;87.99
12664;BME280;6396;58.490;15.528;2022-09-01T11:09:20;101700.91;;;19.49;84.59
12664;BME280;6396;58.490;15.528;2022-09-01T11:12:07;101518.00;;;18.50;77.61
12664;BME280;6396;58.490;15.528;2022-09-01T11:14:47;101806.69;;;20.57;72.32
12664;BME280;6396;58.490;15.528;2022-09-01T11:17:17;101789.81;;;20.90;88.09
12664;BME280;6396;58.490;15.528;2022-09-01T11:19:47;101634.72;;;20.26;74.32
12664;BME280;6396;58.490;15.528;2022-09-01T11:22:31;101782.72;;;21.58;88.30
12664;BME280;6396;58.490;15.528;2022-09-01T11:27:58;101792.91;;;21.68;57.68
12664;BME280;6396;58.490;15.528;2022-09-01T11:30:34;101787.44;;;21.70;74.37
12664;BME280;6396;58.490;15.528;2022-09-01T11:33:20;101806.50;;;21.82;59.83
12664;BME280;6396;58.490;15.528;2022-09-01T11:35:58;101566.13;;;20.54;72.64
12664;BME280;6396;58.490;15.528;2022-09-01T11:38:26;101773.84;;;22.05;64.86
12664;BME280;6396;58.490;15.528;2022-09-01T11:40:55;101772.03;;;22.06;60.63
12664;BME280;6396;58.490;15.528;2022-09-01T11:43:24;101811.97;;;21.81;61.41
12664;BME280;6396;58.490;15.528;2022-09-01T11:46:01;101666.47;;;20.86;52.39
12664;BME280;6396;58.490;15.528;2022-09-01T11:48:31;101652.88;;;20.38;62.16
12664;BME280;6396;58.490;15.528;2022-09-01T11:51:00;101658.91;;;20.06;60.75
12664;BME280;6396;58.490;15.528;2022-09-01T11:53:27;101782.75;;;20.88;63.39
12664;BME280;6396;58.490;15.528;2022-09-01T11:55:56;101716.13;;;20.25;71.16
12664;BME280;6396;58.490;15.528;2022-09-01T11:58:38;101786.09;;;20.39;67.17
12664;BME280;6396;58.490;15.528;2022-09-01T12:01:15;101781.59;;;20.21;77.49
12664;BME280;6396;58.490;15.528;2022-09-01T12:03:44;101776.50;;;20.15;78.96
12664;BME280;6396;58.490;15.528;2022-09-01T12:06:25;101741.31;;;20.02;60.90
12664;BME280;6396;58.490;15.528;2022-09-01T12:08:55;101657.47;;;19.61;62.82
12664;BME280;6396;58.490;15.528;2022-09-01T12:11:24;101648.06;;;19.71;60.88
12664;BME280;6396;58.490;15.528;2022-09-01T12:13:58;101685.47;;;19.36;58.63
12664;BME280;6396;58.490;15.528;2022-09-01T12:16:27;101744.13;;;19.80;58.27
12664;BME280;6396;58.490;15.528;2022-09-01T12:18:56;101769.78;;;19.86;58.21
12664;BME280;6396;58.490;15.528;2022-09-01T12:21:28;101587.19;;;18.37;59.88
12664;BME280;6396;58.490;15.528;2022-09-01T12:24:09;101574.56;;;18.41;84.75
12664;BME280;6396;58.490;15.528;2022-09-01T12:26:38;101783.84;;;19.72;70.10
12664;BME280;6396;58.490;15.528;2022-09-01T12:29:06;101668.25;;;19.41;85.09
12664;BME280;6396;58.490;15.528;2022-09-01T12:31:34;101598.69;;;19.20;65.49
12664;BME280;6396;58.490;15.528;2022-09-01T12:34:01;101695.16;;;19.95;58.35
12664;BME280;6396;58.490;15.528;2022-09-01T12:36:30;101757.66;;;20.35;62.58
12664;BME280;6396;58.490;15.528;2022-09-01T12:39:19;101761.47;;;20.11;57.27
12664;BME280;6396;58.490;15.528;2022-09-01T12:42:00;101761.63;;;20.08;58.57
12664;BME280;6396;58.490;15.528;2022-09-01T12:44:31;101679.78;;;19.62;56.78
12664;BME280;6396;58.490;15.528;2022-09-01T12:47:01;101741.25;;;19.85;70.73
12664;BME280;6396;58.490;15.528;2022-09-01T12:49:38;101772.13;;;19.75;65.08
12664;BME280;6396;58.490;15.528;2022-09-01T12:52:18;101708.97;;;19.29;73.01
12664;BME280;6396;58.490;15.528;2022-09-01T12:54:49;101768.56;;;19.54;71.51
12664;BME280;6396;58.490;15.528;2022-09-01T12:57:24;101662.50;;;18.90;80.89
12664;BME280;6396;58.490;15.528;2022-09-01T13:00:07;101772.16;;;19.35;88.08
12664;BME280;6396;58.490;15.528;2022-09-01T13:02:36;101788.00;;;19.39;93.00
12664;BME280;6396;58.490;15.528;2022-09-01T13:05:25;101750.72;;;19.35;68.89
12664;BME280;6396;58.490;15.528;2022-09-01T13:07:53;101453.34;;;17.58;82.90
12664;BME280;6396;58.490;15.528;2022-09-01T13:10:21;101770.88;;;19.43;87.72
12664;BME280;6396;58.490;15.528;2022-09-01T13:12:50;101531.88;;;18.18;80.72
12664;BME280;6396;58.490;15.528;2022-09-01T13:15:18;101706.19;;;19.11;86.01
12664;BME280;6396;58.490;15.528;2022-09-01T13:17:45;101609.84;;;18.50;76.90
12664;BME280;6396;58.490;15.528;2022-09-01T13:20:12;101721.06;;;19.18;88.99